Ashland, Kentucky
Current Conditions -  °F | °C
As of 8:55 AM on Wednesday 26 Nov 2014 (Local Time) from KDWU Reporting Station
Overcast Overcast  
Wind Chill: 32°   Ceiling: 7000
Heat Index: 36°   Visibility: 10mi
Dew Point: 27°   Wind: 5mph
Humidity: 70%   Direction: 340°NNW
Pressure: 30.08"   Gusts: NA
Location:  38.48°N, 82.64°W
Report Text: KDWU 261355Z AUTO 34004KT 10SM OVC070 02/M03 A3008 RMK AO1
Loading
Personal Weather Stations






























Interactive Weather Map New forecast layout! Learn more

10-Day Weather Forecast

Advertisements
Track Severe Weather on mobile